Time;durP1;ratioP1;P1;durP2;ratioP2;P2;SDS_P1;SDS_P2;PMS_P1;PMS_P2;Temp;Humidity;BMP_temperature;BMP_pressure;BME280_temperature;BME280_humidity;BME280_pressure;Samples;Min_cycle;Max_cycle;Signal;HPM_P1;HPM_P2
2023/01/21 00:02:10;;;;;;;;;5.00;5.00;;;;;7.15;100.00;101853.09;5008349;28;45515;-74
2023/01/21 00:04:38;;;;;;;;;6.75;5.25;;;;;7.17;100.00;101863.66;5007886;28;46095;-74
2023/01/21 00:07:04;;;;;;;;;9.50;5.00;;;;;7.18;100.00;101855.84;5014318;28;46963;-73
2023/01/21 00:09:33;;;;;;;;;6.00;4.00;;;;;7.19;100.00;101870.78;5009613;28;45462;-72
2023/01/21 00:12:01;;;;;;;;;6.25;5.50;;;;;7.17;100.00;101856.69;5006804;28;45741;-74
2023/01/21 00:14:30;;;;;;;;;6.00;5.00;;;;;7.15;100.00;101871.50;5001211;28;46661;-74
2023/01/21 00:16:57;;;;;;;;;5.00;3.00;;;;;7.16;100.00;101868.03;5010114;28;45709;-74
2023/01/21 00:19:23;;;;;;;;;7.25;4.00;;;;;7.13;100.00;101870.50;5008107;28;45917;-74
2023/01/21 00:21:49;;;;;;;;;5.50;5.50;;;;;7.12;100.00;101871.34;5010580;28;45630;-73
2023/01/21 00:24:14;;;;;;;;;3.00;3.00;;;;;7.09;100.00;101866.00;5006488;28;46611;-75
2023/01/21 00:26:39;;;;;;;;;9.75;5.25;;;;;7.08;100.00;101869.44;4998600;28;45618;-73
2023/01/21 00:29:05;;;;;;;;;5.50;5.00;;;;;7.07;100.00;101873.78;5003311;28;54607;-73
2023/01/21 00:31:30;;;;;;;;;5.00;5.00;;;;;7.06;100.00;101871.09;5001085;28;53705;-75
2023/01/21 00:33:55;;;;;;;;;3.50;2.00;;;;;7.05;100.00;101871.94;5002086;28;47446;-75
2023/01/21 00:36:23;;;;;;;;;7.00;3.00;;;;;7.09;100.00;101877.38;5007885;28;57474;-74
2023/01/21 00:38:49;;;;;;;;;2.75;2.00;;;;;7.10;100.00;101875.66;5004296;28;45758;-73
2023/01/21 00:41:14;;;;;;;;;2.50;2.25;;;;;7.10;100.00;101883.53;5004985;28;45673;-75
2023/01/21 00:43:40;;;;;;;;;4.00;4.00;;;;;7.08;100.00;101893.06;5002065;28;55950;-75
2023/01/21 00:46:06;;;;;;;;;4.50;2.00;;;;;7.06;100.00;101885.13;5009685;28;45565;-73
2023/01/21 00:48:33;;;;;;;;;5.75;2.00;;;;;7.09;100.00;101894.88;4983733;28;45431;-73
2023/01/21 00:51:01;;;;;;;;;3.00;3.00;;;;;7.13;100.00;101896.78;4989605;28;45579;-73
2023/01/21 00:53:31;;;;;;;;;11.25;7.00;;;;;7.15;100.00;101899.50;4995518;28;47478;-73
2023/01/21 00:56:06;;;;;;;;;10.00;7.25;;;;;7.17;100.00;101898.72;4984473;28;45600;-74
2023/01/21 00:58:32;;;;;;;;;13.25;10.25;;;;;7.19;100.00;101904.94;4993872;28;45260;-73
2023/01/21 01:01:05;;;;;;;;;21.25;14.50;;;;;7.21;100.00;101912.88;4983723;28;45373;-73
2023/01/21 01:03:32;;;;;;;;;6.00;3.50;;;;;7.19;100.00;101901.38;4990809;28;46645;-74
2023/01/21 01:06:05;;;;;;;;;5.50;5.00;;;;;7.16;100.00;101904.78;4988139;28;45459;-74
2023/01/21 01:08:31;;;;;;;;;7.00;6.00;;;;;7.18;100.00;101908.38;4987861;28;45296;-73
2023/01/21 01:10:56;;;;;;;;;9.00;5.00;;;;;7.21;100.00;101913.78;4977574;28;45246;-73
2023/01/21 01:13:22;;;;;;;;;6.25;6.00;;;;;7.24;100.00;101915.59;4995504;28;45748;-73
2023/01/21 01:15:50;;;;;;;;;5.75;2.00;;;;;7.24;100.00;101921.75;4984806;28;62422;-73
2023/01/21 01:18:16;;;;;;;;;2.00;2.00;;;;;7.26;100.00;101930.63;4992870;28;45265;-74
2023/01/21 01:20:42;;;;;;;;;10.25;9.00;;;;;7.30;100.00;101927.28;5009632;28;45513;-73
2023/01/21 01:23:07;;;;;;;;;4.50;3.00;;;;;7.31;100.00;101923.84;4991132;28;45295;-73
2023/01/21 01:25:34;;;;;;;;;5.00;5.00;;;;;7.31;100.00;101926.47;4991953;28;51889;-73
2023/01/21 01:27:59;;;;;;;;;10.25;6.75;;;;;7.35;100.00;101935.38;4982861;28;45498;-74
2023/01/21 01:30:24;;;;;;;;;18.50;11.75;;;;;7.35;100.00;101931.00;4989316;28;55037;-75
2023/01/21 01:32:50;;;;;;;;;5.00;5.00;;;;;7.38;100.00;101938.13;4986532;28;62711;-73
2023/01/21 01:35:15;;;;;;;;;10.00;7.00;;;;;7.39;100.00;101941.63;4989774;28;60107;-73
2023/01/21 01:37:40;;;;;;;;;10.50;6.50;;;;;7.40;100.00;101930.28;4995483;28;45301;-73
2023/01/21 01:40:07;;;;;;;;;8.50;8.50;;;;;7.41;100.00;101940.88;4990499;28;51439;-73
2023/01/21 01:42:33;;;;;;;;;16.25;14.50;;;;;7.42;100.00;101947.94;4981458;28;45527;-73
2023/01/21 01:45:02;;;;;;;;;4.25;4.00;;;;;7.42;100.00;101950.56;4981340;28;57029;-73
2023/01/21 01:47:41;;;;;;;;;10.75;8.00;;;;;7.41;100.00;101959.28;4988719;28;45622;-73
2023/01/21 01:50:10;;;;;;;;;5.75;5.75;;;;;7.41;100.00;101956.66;4986186;28;45666;-74
2023/01/21 01:52:35;;;;;;;;;9.25;6.75;;;;;7.42;100.00;101957.53;5008859;28;46262;-73
2023/01/21 01:55:02;;;;;;;;;7.00;7.00;;;;;7.45;100.00;101961.16;4985075;28;45384;-76
2023/01/21 01:57:33;;;;;;;;;7.00;7.00;;;;;7.45;100.00;101976.03;4997032;28;45310;-73
2023/01/21 02:00:02;;;;;;;;;6.75;6.00;;;;;7.44;100.00;101977.78;4989024;28;45265;-76
2023/01/21 02:02:28;;;;;;;;;5.50;5.50;;;;;7.44;100.00;101977.78;4994796;28;45400;-74
2023/01/21 02:04:56;;;;;;;;;9.25;7.25;;;;;7.43;100.00;101983.88;4987372;28;58905;-73
2023/01/21 02:07:23;;;;;;;;;10.00;7.00;;;;;7.42;100.00;101992.59;4991395;28;45440;-73
2023/01/21 02:09:48;;;;;;;;;8.25;6.75;;;;;7.40;100.00;101991.59;4993225;28;45639;-73
2023/01/21 02:12:16;;;;;;;;;7.50;6.50;;;;;7.36;100.00;101997.59;4987707;28;58830;-76
2023/01/21 02:14:42;;;;;;;;;5.75;5.00;;;;;7.36;100.00;101997.59;4990840;28;45208;-73
2023/01/21 02:17:46;;;;;;;;;6.75;5.75;;;;;7.35;100.00;102006.31;4994434;28;52614;-73
2023/01/21 02:20:27;;;;;;;;;6.25;5.25;;;;;7.33;100.00;102022.00;4984239;28;45558;-73
2023/01/21 02:23:07;;;;;;;;;9.25;6.00;;;;;7.33;100.00;102023.72;4990083;28;48755;-74
2023/01/21 02:26:00;;;;;;;;;9.50;7.00;;;;;7.34;100.00;102029.03;5010058;28;45389;-75
2023/01/21 02:28:50;;;;;;;;;14.00;7.00;;;;;7.35;100.00;102028.22;4990218;28;45460;-73
2023/01/21 02:31:48;;;;;;;;;10.75;6.00;;;;;7.34;100.00;102034.28;4988202;28;45349;-74
2023/01/21 02:34:23;;;;;;;;;8.00;6.25;;;;;7.33;100.00;102045.63;4994276;28;46423;-73
2023/01/21 02:37:16;;;;;;;;;6.75;5.50;;;;;7.34;100.00;102041.28;4995479;28;45479;-73
2023/01/21 02:39:56;;;;;;;;;5.75;5.75;;;;;7.32;100.00;102050.81;4985624;28;45569;-73
2023/01/21 02:42:35;;;;;;;;;6.50;6.50;;;;;7.31;100.00;102072.69;4997752;28;45294;-73
2023/01/21 02:45:09;;;;;;;;;10.75;9.25;;;;;7.31;100.00;102081.47;4987389;28;45521;-73
2023/01/21 02:47:40;;;;;;;;;9.00;5.25;;;;;7.29;100.00;102090.09;4990790;28;45434;-75
2023/01/21 02:50:12;;;;;;;;;7.25;6.00;;;;;7.26;100.00;102106.63;4986966;28;45340;-73
2023/01/21 02:52:38;;;;;;;;;10.25;6.25;;;;;7.24;100.00;102116.16;4985245;28;45494;-73
2023/01/21 02:55:03;;;;;;;;;6.50;6.50;;;;;7.21;100.00;102116.03;4984514;28;66219;-72
2023/01/21 02:57:37;;;;;;;;;11.75;10.50;;;;;7.20;100.00;102124.75;4993152;28;45356;-73
2023/01/21 03:00:10;;;;;;;;;10.25;8.75;;;;;7.13;100.00;102125.28;4991213;28;45527;-73
2023/01/21 03:03:10;;;;;;;;;11.00;9.75;;;;;7.08;100.00;102138.22;4987376;28;45380;-73
2023/01/21 03:06:03;;;;;;;;;15.00;9.50;;;;;7.06;100.00;102147.75;5009593;28;45810;-76
2023/01/21 03:08:36;;;;;;;;;10.50;9.25;;;;;7.01;100.00;102149.25;5007811;28;45512;-73
2023/01/21 03:11:15;;;;;;;;;11.75;10.00;;;;;6.96;100.00;102158.63;4986443;28;45333;-74
2023/01/21 03:19:18;;;;;;;;;9.75;9.75;;;;;6.86;100.00;102163.38;4988310;28;45590;-74
2023/01/21 03:21:45;;;;;;;;;10.50;7.50;;;;;6.80;100.00;102154.38;4994703;28;45455;-73
2023/01/21 03:24:13;;;;;;;;;9.25;9.25;;;;;6.78;100.00;102155.16;4983050;28;53997;-73
2023/01/21 03:26:43;;;;;;;;;8.50;8.50;;;;;6.74;100.00;102156.72;4986993;28;46720;-74
2023/01/21 03:29:14;;;;;;;;;10.25;8.00;;;;;6.70;100.00;102172.25;4993642;28;45490;-74
2023/01/21 03:31:41;;;;;;;;;13.00;8.25;;;;;6.65;100.00;102174.66;4987249;28;45529;-74
2023/01/21 03:34:09;;;;;;;;;9.00;6.00;;;;;6.62;100.00;102171.91;4983979;28;45341;-76
2023/01/21 03:36:41;;;;;;;;;14.25;9.50;;;;;6.65;100.00;102181.63;4990404;28;46362;-73
2023/01/21 03:39:15;;;;;;;;;13.25;9.75;;;;;6.63;100.00;102181.56;4986470;28;45412;-73
2023/01/21 03:41:40;;;;;;;;;17.25;13.50;;;;;6.61;100.00;102179.72;4988593;28;45593;-73
2023/01/21 03:44:06;;;;;;;;;10.75;9.25;;;;;6.58;100.00;102175.19;4983107;28;45332;-75
2023/01/21 03:46:49;;;;;;;;;18.50;10.25;;;;;6.58;100.00;102188.31;4988645;28;63047;-73
2023/01/21 03:49:19;;;;;;;;;13.75;11.25;;;;;6.56;100.00;102185.63;5011614;28;45576;-72
2023/01/21 03:51:51;;;;;;;;;15.75;9.75;;;;;6.54;100.00;102195.13;4988928;28;45372;-73
2023/01/21 03:54:17;;;;;;;;;10.75;8.75;;;;;6.53;100.00;102189.81;4993574;28;45471;-74
2023/01/21 03:56:42;;;;;;;;;13.25;10.75;;;;;6.52;100.00;102193.25;4987031;28;55377;-73
2023/01/21 03:59:07;;;;;;;;;12.75;12.75;;;;;6.49;100.00;102207.13;4986821;28;61192;-73
2023/01/21 04:01:33;;;;;;;;;13.75;10.00;;;;;6.47;100.00;102203.53;4990970;28;45407;-74
2023/01/21 04:03:58;;;;;;;;;11.75;8.00;;;;;6.46;100.00;102206.97;4987112;28;52218;-73
2023/01/21 04:06:23;;;;;;;;;17.50;13.25;;;;;6.44;100.00;102207.72;4988180;28;64544;-73
2023/01/21 04:08:49;;;;;;;;;17.25;13.25;;;;;6.42;100.00;102214.63;4981351;28;61002;-73
2023/01/21 04:11:15;;;;;;;;;13.50;9.50;;;;;6.40;100.00;102216.28;4993622;28;57807;-73
2023/01/21 04:13:40;;;;;;;;;14.00;12.50;;;;;6.39;100.00;102217.06;4985654;28;45516;-74
2023/01/21 04:16:06;;;;;;;;;12.50;10.00;;;;;6.36;100.00;102209.06;4983671;28;60939;-73
2023/01/21 04:18:31;;;;;;;;;11.75;9.75;;;;;6.30;100.00;102213.19;4986887;28;45186;-73
2023/01/21 04:20:57;;;;;;;;;15.50;10.25;;;;;6.26;100.00;102219.09;4985759;28;53714;-73
2023/01/21 04:23:22;;;;;;;;;15.25;12.25;;;;;6.22;100.00;102222.38;4985579;28;45445;-75
2023/01/21 04:25:48;;;;;;;;;13.50;10.50;;;;;6.19;100.00;102226.59;4986583;28;64409;-75
2023/01/21 04:28:13;;;;;;;;;13.75;12.00;;;;;6.19;100.00;102221.34;4985661;28;45478;-73
2023/01/21 04:30:39;;;;;;;;;12.25;10.75;;;;;6.14;100.00;102214.97;4993836;28;45388;-73
2023/01/21 04:33:04;;;;;;;;;15.00;10.50;;;;;6.10;100.00;102221.75;4992365;28;45538;-73
2023/01/21 04:35:29;;;;;;;;;9.00;9.00;;;;;6.02;100.00;102224.00;4988738;28;52259;-73
2023/01/21 04:37:54;;;;;;;;;15.25;12.75;;;;;5.99;100.00;102231.69;4986868;28;59894;-73
2023/01/21 04:40:20;;;;;;;;;12.50;11.00;;;;;5.97;100.00;102232.44;4990963;28;56422;-73
2023/01/21 04:42:45;;;;;;;;;8.75;4.50;;;;;5.92;100.00;102228.69;4986651;28;54952;-75
2023/01/21 04:45:10;;;;;;;;;16.75;13.25;;;;;5.91;100.00;102242.53;4993102;28;62379;-72
2023/01/21 04:47:40;;;;;;;;;13.50;10.75;;;;;5.86;100.00;102234.47;4981429;28;48331;-73
2023/01/21 04:50:06;;;;;;;;;13.25;10.00;;;;;5.85;100.00;102244.84;4980188;28;45416;-73
2023/01/21 04:52:31;;;;;;;;;15.25;12.00;;;;;5.82;100.00;102247.34;4988665;28;46645;-74
2023/01/21 04:54:56;;;;;;;;;10.75;10.50;;;;;5.79;100.00;102243.72;4986829;28;61689;-74
2023/01/21 04:57:21;;;;;;;;;12.00;9.50;;;;;5.76;100.00;102243.56;4989491;28;57630;-73
2023/01/21 04:59:47;;;;;;;;;12.00;5.00;;;;;5.73;100.00;102251.25;4994811;28;55487;-75
2023/01/21 05:02:13;;;;;;;;;11.25;7.75;;;;;5.69;100.00;102246.66;4988125;28;45417;-73
2023/01/21 05:04:38;;;;;;;;;13.50;7.00;;;;;5.67;100.00;102248.31;4989034;28;46226;-74
2023/01/21 05:07:04;;;;;;;;;11.25;8.00;;;;;5.63;100.00;102248.94;4988433;28;60115;-74
2023/01/21 05:09:29;;;;;;;;;14.50;12.00;;;;;5.62;100.00;102255.03;4991613;28;45589;-73
2023/01/21 05:11:54;;;;;;;;;8.50;8.00;;;;;5.59;100.00;102246.09;4988164;28;49483;-72
2023/01/21 05:14:20;;;;;;;;;10.75;10.75;;;;;5.53;100.00;102249.28;4991760;28;63549;-75
2023/01/21 05:16:45;;;;;;;;;12.00;9.75;;;;;5.50;100.00;102251.75;4987361;28;58971;-75
2023/01/21 05:19:11;;;;;;;;;17.50;11.50;;;;;5.44;100.00;102249.69;4988366;28;55255;-73
2023/01/21 05:21:36;;;;;;;;;14.50;12.50;;;;;5.37;100.00;102258.00;4982524;28;45351;-73
2023/01/21 05:24:02;;;;;;;;;13.75;12.25;;;;;5.33;100.00;102253.44;4986837;28;61783;-72
2023/01/21 05:26:27;;;;;;;;;13.00;11.25;;;;;5.32;100.00;102263.81;4989162;28;50288;-73
2023/01/21 05:28:52;;;;;;;;;19.75;12.75;;;;;5.28;100.00;102256.63;4981195;28;55624;-73
2023/01/21 05:31:17;;;;;;;;;18.00;13.50;;;;;5.25;100.00;102257.34;4994344;28;45692;-75
2023/01/21 05:33:44;;;;;;;;;13.25;11.25;;;;;5.21;100.00;102263.22;4996619;28;61404;-73
2023/01/21 05:36:10;;;;;;;;;13.00;12.00;;;;;5.17;100.00;102264.78;4980862;28;45334;-74
2023/01/21 05:38:35;;;;;;;;;14.00;11.50;;;;;5.14;100.00;102275.09;4997692;28;45286;-75
2023/01/21 05:41:02;;;;;;;;;16.25;12.25;;;;;5.09;100.00;102271.31;4992282;28;56850;-74
2023/01/21 05:43:28;;;;;;;;;14.50;9.75;;;;;5.02;100.00;102266.53;4989601;28;46115;-73
2023/01/21 05:45:53;;;;;;;;;12.00;11.75;;;;;4.97;100.00;102274.13;4994500;28;45454;-73
2023/01/21 05:48:19;;;;;;;;;18.75;13.00;;;;;4.97;100.00;102276.75;4987028;28;45398;-73
2023/01/21 05:50:44;;;;;;;;;16.00;11.75;;;;;4.97;100.00;102284.59;4994155;28;45838;-73
2023/01/21 05:53:09;;;;;;;;;17.00;13.75;;;;;4.96;100.00;102287.16;4983650;28;64851;-73
2023/01/21 05:55:38;;;;;;;;;11.25;11.25;;;;;4.92;100.00;102285.16;4983859;28;61093;-73
2023/01/21 05:58:04;;;;;;;;;18.75;13.50;;;;;4.91;100.00;102296.44;4995123;28;45376;-74
2023/01/21 06:00:29;;;;;;;;;13.25;10.25;;;;;4.89;100.00;102295.44;4986476;28;45699;-73
2023/01/21 06:02:55;;;;;;;;;12.50;11.25;;;;;4.86;100.00;102293.56;4996091;28;46140;-73
2023/01/21 06:05:20;;;;;;;;;15.25;12.75;;;;;4.84;100.00;102296.88;4992203;28;53168;-73
2023/01/21 06:07:46;;;;;;;;;18.00;11.75;;;;;4.78;100.00;102307.91;4995747;28;55451;-74
2023/01/21 06:10:11;;;;;;;;;9.75;9.75;;;;;4.77;100.00;102300.88;4989756;28;53185;-74
2023/01/21 06:12:36;;;;;;;;;15.75;12.25;;;;;4.79;100.00;102306.19;4987807;28;58566;-73
2023/01/21 06:15:02;;;;;;;;;20.25;11.50;;;;;4.77;100.00;102311.34;4992489;28;58124;-73
2023/01/21 06:17:27;;;;;;;;;11.25;11.25;;;;;4.75;100.00;102310.34;4991393;28;45329;-73
2023/01/21 06:19:53;;;;;;;;;16.00;13.75;;;;;4.75;100.00;102317.31;4987320;28;45212;-73
2023/01/21 06:22:18;;;;;;;;;18.00;15.75;;;;;4.72;100.00;102321.53;4990117;28;46660;-73
2023/01/21 06:24:44;;;;;;;;;26.00;17.75;;;;;4.68;100.00;102313.41;4990630;28;57329;-73
2023/01/21 06:27:09;;;;;;;;;12.75;12.75;;;;;4.68;100.00;102326.50;4986756;28;45351;-75
2023/01/21 06:29:34;;;;;;;;;13.25;13.25;;;;;4.63;100.00;102326.22;4988145;28;53050;-73
2023/01/21 06:32:00;;;;;;;;;20.50;16.00;;;;;4.61;100.00;102327.84;4987811;28;45499;-72
2023/01/21 06:34:25;;;;;;;;;18.75;14.25;;;;;4.59;100.00;102331.22;4986108;28;58394;-73
2023/01/21 06:36:51;;;;;;;;;15.00;12.50;;;;;4.61;100.00;102334.81;4990518;28;55263;-73
2023/01/21 06:39:16;;;;;;;;;23.00;15.75;;;;;4.58;100.00;102332.00;4996492;28;45589;-74
2023/01/21 06:41:41;;;;;;;;;12.25;12.00;;;;;4.58;100.00;102335.53;4984883;28;47658;-76
2023/01/21 06:44:07;;;;;;;;;20.75;13.25;;;;;4.62;100.00;102344.44;4992451;28;60716;-73
2023/01/21 06:46:32;;;;;;;;;18.75;14.00;;;;;4.61;100.00;102343.53;4987317;28;45341;-72
2023/01/21 06:48:59;;;;;;;;;22.00;11.50;;;;;4.65;100.00;102352.50;4988811;28;47133;-73
2023/01/21 06:51:24;;;;;;;;;16.50;15.00;;;;;4.65;100.00;102356.00;4992424;28;57561;-75
2023/01/21 06:53:50;;;;;;;;;13.75;13.50;;;;;4.70;100.00;102353.66;4986559;28;45463;-74
2023/01/21 06:56:15;;;;;;;;;16.00;12.25;;;;;4.69;100.00;102362.34;4984259;28;56758;-75
2023/01/21 06:58:40;;;;;;;;;14.25;12.25;;;;;4.76;100.00;102366.22;4988183;28;45968;-74
2023/01/21 07:01:06;;;;;;;;;20.00;13.50;;;;;4.79;100.00;102366.38;4990303;28;45537;-74
2023/01/21 07:03:31;;;;;;;;;26.25;17.50;;;;;4.81;100.00;102370.00;4989829;28;51129;-75
2023/01/21 07:05:56;;;;;;;;;20.50;18.00;;;;;4.84;100.00;102364.94;4991282;28;45770;-74
2023/01/21 07:08:22;;;;;;;;;22.25;19.25;;;;;4.90;100.00;102379.31;4994535;28;45499;-75
2023/01/21 07:10:47;;;;;;;;;20.00;15.25;;;;;4.93;100.00;102387.31;4994860;28;59027;-74
2023/01/21 07:13:12;;;;;;;;;16.50;15.25;;;;;4.92;100.00;102385.50;4989328;28;61560;-75
2023/01/21 07:15:38;;;;;;;;;15.75;15.75;;;;;4.88;100.00;102387.84;4985059;28;51976;-74
2023/01/21 07:18:03;;;;;;;;;18.50;16.00;;;;;4.87;100.00;102396.53;4986651;28;45536;-74
2023/01/21 07:20:28;;;;;;;;;10.25;8.25;;;;;4.81;100.00;102391.84;4987731;28;61914;-74
2023/01/21 07:22:54;;;;;;;;;27.25;16.00;;;;;4.78;100.00;102402.09;4993435;28;45555;-74
2023/01/21 07:25:19;;;;;;;;;21.50;15.00;;;;;4.75;100.00;102398.44;4995367;28;45279;-74
2023/01/21 07:27:45;;;;;;;;;31.75;20.50;;;;;4.71;100.00;102413.94;4991482;28;45538;-74
2023/01/21 07:30:19;;;;;;;;;20.00;20.00;;;;;4.69;100.00;102418.19;4987551;28;60255;-74
2023/01/21 07:32:45;;;;;;;;;21.00;18.50;;;;;4.67;100.00;102422.41;4986768;28;45325;-74
2023/01/21 07:35:11;;;;;;;;;23.25;17.25;;;;;4.67;100.00;102431.97;4991530;28;45407;-74
2023/01/21 07:37:36;;;;;;;;;27.75;23.75;;;;;4.66;100.00;102422.31;4994620;28;45500;-74
2023/01/21 07:40:02;;;;;;;;;29.50;17.50;;;;;4.64;100.00;102435.31;4993929;28;48759;-74
2023/01/21 07:42:27;;;;;;;;;15.00;11.00;;;;;4.60;100.00;102435.94;4980572;28;45384;-73
2023/01/21 07:44:53;;;;;;;;;21.50;17.25;;;;;4.59;100.00;102439.34;4986992;28;57967;-74
2023/01/21 07:47:18;;;;;;;;;23.75;15.50;;;;;4.57;100.00;102443.56;4986236;28;45690;-75
2023/01/21 07:49:43;;;;;;;;;32.50;23.75;;;;;4.54;100.00;102438.16;4985559;28;61130;-74
2023/01/21 07:52:09;;;;;;;;;26.50;20.75;;;;;4.54;100.00;102452.97;4988378;28;52754;-74
2023/01/21 07:54:34;;;;;;;;;25.00;19.50;;;;;4.53;100.00;102459.91;4979205;28;56642;-75
2023/01/21 07:56:59;;;;;;;;;23.00;18.25;;;;;4.50;100.00;102457.09;4992902;28;45527;-74
2023/01/21 07:59:24;;;;;;;;;22.50;17.00;;;;;4.52;100.00;102468.53;4989091;28;57403;-73
2023/01/21 08:01:50;;;;;;;;;30.50;26.00;;;;;4.50;100.00;102464.94;4989706;28;60042;-75
2023/01/21 08:04:15;;;;;;;;;36.25;24.00;;;;;4.50;100.00;102464.03;4988320;28;45665;-74
2023/01/21 08:06:41;;;;;;;;;30.75;23.50;;;;;4.45;100.00;102468.97;4995336;28;48902;-74
2023/01/21 08:09:07;;;;;;;;;23.25;16.00;;;;;4.43;100.00;102463.66;4988784;28;46680;-74
2023/01/21 08:11:32;;;;;;;;;38.50;25.25;;;;;4.45;100.00;102471.59;4991018;28;45455;-77
2023/01/21 08:13:58;;;;;;;;;31.25;20.50;;;;;4.46;100.00;102476.00;4983040;28;45645;-74
2023/01/21 08:16:23;;;;;;;;;26.50;22.50;;;;;4.43;100.00;102465.38;4985952;28;45351;-74
2023/01/21 08:18:48;;;;;;;;;21.75;19.75;;;;;4.43;100.00;102475.84;4987338;28;49431;-73
2023/01/21 08:21:14;;;;;;;;;21.50;17.00;;;;;4.45;100.00;102487.28;4986544;28;58238;-74
2023/01/21 08:23:39;;;;;;;;;30.75;25.25;;;;;4.48;100.00;102487.50;4989609;28;55235;-75
2023/01/21 08:26:06;;;;;;;;;25.25;19.50;;;;;4.47;100.00;102486.59;4985865;28;54628;-74
2023/01/21 08:28:31;;;;;;;;;20.00;15.50;;;;;4.49;100.00;102494.53;4986365;28;45843;-74
2023/01/21 08:31:08;;;;;;;;;24.75;18.50;;;;;4.51;100.00;102499.84;4987878;28;45447;-74
2023/01/21 08:33:34;;;;;;;;;29.50;20.25;;;;;4.53;100.00;102499.16;4990846;28;45436;-75
2023/01/21 08:36:00;;;;;;;;;31.50;26.25;;;;;4.60;100.00;102497.81;4985728;28;45355;-74
2023/01/21 08:38:26;;;;;;;;;31.00;23.50;;;;;4.69;100.00;102508.84;4984176;28;47612;-74
2023/01/21 08:40:51;;;;;;;;;35.75;26.00;;;;;4.72;100.00;102511.63;4992158;28;62825;-74
2023/01/21 08:43:16;;;;;;;;;22.50;17.00;;;;;4.76;100.00;102511.03;4989921;28;55183;-74
2023/01/21 08:45:42;;;;;;;;;32.25;22.25;;;;;4.78;100.00;102516.34;4983058;28;46923;-74
2023/01/21 08:48:07;;;;;;;;;25.00;22.75;;;;;4.79;100.00;102515.53;4983062;28;59615;-74
2023/01/21 08:50:33;;;;;;;;;33.50;23.00;;;;;4.83;100.00;102522.75;4990517;28;45540;-74
2023/01/21 08:52:58;;;;;;;;;32.00;20.75;;;;;4.82;100.00;102524.47;4983235;28;45374;-73
2023/01/21 08:55:25;;;;;;;;;26.00;20.75;;;;;4.84;100.00;102525.47;4982837;28;52624;-74
2023/01/21 08:57:52;;;;;;;;;35.25;23.00;;;;;4.95;100.00;102528.72;4987515;28;46748;-74
2023/01/21 09:00:19;;;;;;;;;26.25;21.50;;;;;5.00;100.00;102525.59;4985732;28;45676;-73
2023/01/21 09:02:44;;;;;;;;;27.50;25.50;;;;;5.05;100.00;102531.09;5004219;28;45669;-75
2023/01/21 09:05:09;;;;;;;;;28.00;22.75;;;;;5.07;100.00;102523.38;4985428;28;45543;-74
2023/01/21 09:07:35;;;;;;;;;27.75;22.50;;;;;5.07;100.00;102537.34;4989055;28;61415;-76
2023/01/21 09:10:01;;;;;;;;;29.00;21.75;;;;;5.08;100.00;102544.41;4987617;28;45514;-75
2023/01/21 09:12:27;;;;;;;;;37.25;22.50;;;;;5.06;100.00;102532.00;4989425;28;45417;-73
2023/01/21 09:14:52;;;;;;;;;30.50;22.50;;;;;5.07;100.00;102523.38;4990860;28;52047;-74
2023/01/21 09:17:17;;;;;;;;;32.00;22.00;;;;;5.07;100.00;102541.69;4992239;28;62605;-74
2023/01/21 09:19:43;;;;;;;;;27.00;22.75;;;;;5.07;100.00;102542.59;4992754;28;58679;-74
2023/01/21 09:22:08;;;;;;;;;28.00;19.75;;;;;5.06;100.00;102546.03;4995449;28;45501;-74
2023/01/21 09:24:34;;;;;;;;;23.75;20.75;;;;;5.05;100.00;102538.97;4994513;28;45165;-75
2023/01/21 09:26:59;;;;;;;;;27.50;25.00;;;;;5.08;100.00;102536.53;4991904;28;47323;-74
2023/01/21 09:29:24;;;;;;;;;33.25;26.25;;;;;5.08;100.00;102528.69;4986565;28;55226;-74
2023/01/21 09:31:50;;;;;;;;;21.00;21.00;;;;;5.08;100.00;102547.00;4984804;28;45936;-73
2023/01/21 09:34:15;;;;;;;;;27.50;25.25;;;;;5.06;100.00;102543.41;4984994;28;51735;-74
2023/01/21 09:36:40;;;;;;;;;23.75;19.50;;;;;5.02;100.00;102543.13;4988751;28;45756;-76
2023/01/21 09:39:06;;;;;;;;;25.50;19.00;;;;;5.01;100.00;102550.09;4988889;28;45455;-73
2023/01/21 09:41:46;;;;;;;;;32.25;27.25;;;;;5.02;100.00;102558.84;4986662;28;46525;-71
2023/01/21 09:44:22;;;;;;;;;23.25;20.00;;;;;4.87;100.00;102558.78;4978560;28;46161;-72
2023/01/21 09:47:08;;;;;;;;;32.00;21.75;;;;;4.65;100.00;102561.78;4987952;28;46610;-71
2023/01/21 09:49:40;;;;;;;;;35.25;28.50;;;;;4.47;100.00;102571.97;4998082;28;45422;-71
2023/01/21 09:52:42;;;;;;;;;28.25;23.50;;;;;4.45;100.00;102584.97;4997034;28;46320;-73
2023/01/21 09:55:28;;;;;;;;;31.50;25.75;;;;;4.57;100.00;102589.16;4985058;28;45369;-75
2023/01/21 09:58:12;;;;;;;;;35.75;29.00;;;;;4.66;100.00;102593.28;4992018;28;45572;-76
2023/01/21 10:03:33;;;;;;;;;28.50;26.00;;;;;4.86;100.00;102617.19;4974916;22;68085;-73
2023/01/21 10:06:11;;;;;;;;;29.75;27.00;;;;;4.94;100.00;102619.44;4984348;28;45468;-72
2023/01/21 10:09:02;;;;;;;;;30.50;20.50;;;;;5.00;100.00;102629.41;4990848;28;45756;-73
2023/01/21 10:11:51;;;;;;;;;43.25;27.00;;;;;5.04;100.00;102620.94;4991753;28;45443;-73
2023/01/21 10:14:23;;;;;;;;;35.75;26.00;;;;;5.07;100.00;102615.91;5012519;28;47031;-73
2023/01/21 10:17:17;;;;;;;;;33.50;26.25;;;;;5.13;100.00;102607.50;4997571;28;45623;-75
2023/01/21 10:20:10;;;;;;;;;30.50;22.00;;;;;5.17;100.00;102627.84;4991588;28;45676;-72
2023/01/21 10:22:39;;;;;;;;;29.50;25.50;;;;;5.19;100.00;102632.34;4963174;28;46065;-72
2023/01/21 10:25:29;;;;;;;;;33.50;26.50;;;;;5.35;100.00;102635.91;4984708;28;45772;-72
2023/01/21 10:27:58;;;;;;;;;32.50;25.25;;;;;5.51;100.00;102636.94;4978806;28;46683;-72
2023/01/21 10:30:30;;;;;;;;;35.25;27.50;;;;;5.66;100.00;102630.81;4984658;28;46654;-72
2023/01/21 10:32:55;;;;;;;;;27.00;22.75;;;;;5.81;100.00;102641.31;4985424;28;45474;-73
2023/01/21 10:35:30;;;;;;;;;32.75;27.50;;;;;5.90;100.00;102649.69;4985720;28;46675;-72
2023/01/21 10:37:59;;;;;;;;;36.50;23.75;;;;;5.96;100.00;102650.09;4984005;28;45531;-73
2023/01/21 10:40:43;;;;;;;;;37.00;27.25;;;;;5.98;100.00;102653.72;4984514;28;45844;-73
2023/01/21 10:43:08;;;;;;;;;31.75;24.75;;;;;6.02;100.00;102653.09;4983317;28;45576;-75
2023/01/21 10:45:42;;;;;;;;;34.25;23.75;;;;;6.07;100.00;102659.50;4992932;28;45508;-73
2023/01/21 10:48:18;;;;;;;;;33.00;28.00;;;;;6.11;100.00;102643.13;4986788;28;45530;-73
2023/01/21 10:50:53;;;;;;;;;20.00;15.75;;;;;6.19;100.00;102636.63;4979781;28;47324;-73
2023/01/21 10:53:25;;;;;;;;;37.00;26.25;;;;;6.26;100.00;102646.63;4978623;28;45608;-73
2023/01/21 10:56:05;;;;;;;;;27.25;20.75;;;;;6.35;100.00;102637.50;4985135;28;45495;-74
2023/01/21 10:58:43;;;;;;;;;29.25;24.75;;;;;6.40;100.00;102638.66;4981702;28;45663;-73
2023/01/21 11:01:17;;;;;;;;;30.50;28.75;;;;;6.41;100.00;102651.88;4979744;28;46417;-75
2023/01/21 11:03:48;;;;;;;;;36.25;32.00;;;;;6.43;100.00;102650.22;4977323;28;46614;-73
2023/01/21 11:06:16;;;;;;;;;41.00;28.75;;;;;6.51;100.00;102646.31;4981738;28;45558;-73
2023/01/21 11:08:44;;;;;;;;;32.25;25.00;;;;;6.60;100.00;102631.91;5005179;28;45507;-73
2023/01/21 11:11:10;;;;;;;;;28.00;20.00;;;;;6.70;100.00;102631.59;4987821;28;46182;-74
2023/01/21 11:13:35;;;;;;;;;30.25;26.00;;;;;6.78;100.00;102636.47;4982572;28;52131;-74
2023/01/21 11:16:01;;;;;;;;;29.75;27.25;;;;;6.79;100.00;102638.25;4977492;28;45864;-72
2023/01/21 11:18:29;;;;;;;;;33.50;26.75;;;;;6.77;100.00;102644.25;4983120;28;45597;-72
2023/01/21 11:20:59;;;;;;;;;34.50;28.50;;;;;6.76;100.00;102638.09;4985658;28;47632;-73
2023/01/21 11:23:38;;;;;;;;;37.50;29.25;;;;;6.80;100.00;102642.69;4987665;28;45620;-73
2023/01/21 11:26:15;;;;;;;;;36.25;26.50;;;;;6.81;100.00;102643.59;4986312;28;45485;-72
2023/01/21 11:28:41;;;;;;;;;38.00;29.00;;;;;6.81;100.00;102640.97;4986491;28;45862;-74
2023/01/21 11:31:10;;;;;;;;;29.75;22.75;;;;;6.77;100.00;102647.78;4991626;28;59893;-72